sensor_id;sensor_type;location;lat;lon;timestamp;P1;durP1;ratioP1;P2;durP2;ratioP2
52618;SDS011;38513;53.234;6.568;2023-04-24T00:00:55;11.37;;;7.07;;
52618;SDS011;38513;53.234;6.568;2023-04-24T00:03:25;10.38;;;6.95;;
52618;SDS011;38513;53.234;6.568;2023-04-24T00:05:52;10.52;;;7.38;;
52618;SDS011;38513;53.234;6.568;2023-04-24T00:08:22;10.80;;;7.88;;
52618;SDS011;38513;53.234;6.568;2023-04-24T00:10:49;10.50;;;8.10;;
52618;SDS011;38513;53.234;6.568;2023-04-24T00:13:17;12.23;;;8.95;;
52618;SDS011;38513;53.234;6.568;2023-04-24T00:15:43;10.52;;;8.63;;
52618;SDS011;38513;53.234;6.568;2023-04-24T00:18:09;12.68;;;9.30;;
52618;SDS011;38513;53.234;6.568;2023-04-24T00:20:35;12.87;;;10.00;;
52618;SDS011;38513;53.234;6.568;2023-04-24T00:23:02;13.52;;;10.05;;
52618;SDS011;38513;53.234;6.568;2023-04-24T00:25:28;13.10;;;10.25;;
52618;SDS011;38513;53.234;6.568;2023-04-24T00:27:54;11.80;;;9.98;;
52618;SDS011;38513;53.234;6.568;2023-04-24T00:30:20;11.65;;;9.38;;
52618;SDS011;38513;53.234;6.568;2023-04-24T00:32:47;11.63;;;9.05;;
52618;SDS011;38513;53.234;6.568;2023-04-24T00:35:13;13.40;;;9.77;;
52618;SDS011;38513;53.234;6.568;2023-04-24T00:37:40;13.52;;;9.00;;
52618;SDS011;38513;53.234;6.568;2023-04-24T00:40:06;10.65;;;7.68;;
52618;SDS011;38513;53.234;6.568;2023-04-24T00:42:32;9.18;;;6.20;;
52618;SDS011;38513;53.234;6.568;2023-04-24T00:44:59;7.95;;;4.70;;
52618;SDS011;38513;53.234;6.568;2023-04-24T00:47:25;6.13;;;3.53;;
52618;SDS011;38513;53.234;6.568;2023-04-24T00:49:52;6.53;;;3.13;;
52618;SDS011;38513;53.234;6.568;2023-04-24T00:52:21;5.72;;;2.50;;
52618;SDS011;38513;53.234;6.568;2023-04-24T00:54:49;5.55;;;2.50;;
52618;SDS011;38513;53.234;6.568;2023-04-24T00:57:15;4.63;;;2.03;;
52618;SDS011;38513;53.234;6.568;2023-04-24T00:59:42;5.28;;;2.13;;
52618;SDS011;38513;53.234;6.568;2023-04-24T01:02:09;4.28;;;1.83;;
52618;SDS011;38513;53.234;6.568;2023-04-24T01:04:36;4.57;;;1.90;;
52618;SDS011;38513;53.234;6.568;2023-04-24T01:07:02;3.95;;;1.80;;
52618;SDS011;38513;53.234;6.568;2023-04-24T01:09:29;4.97;;;1.80;;
52618;SDS011;38513;53.234;6.568;2023-04-24T01:11:55;3.70;;;1.50;;
52618;SDS011;38513;53.234;6.568;2023-04-24T01:14:22;5.05;;;1.77;;
52618;SDS011;38513;53.234;6.568;2023-04-24T01:16:51;4.35;;;1.67;;
52618;SDS011;38513;53.234;6.568;2023-04-24T01:19:17;4.43;;;1.90;;
52618;SDS011;38513;53.234;6.568;2023-04-24T01:21:44;4.40;;;1.85;;
52618;SDS011;38513;53.234;6.568;2023-04-24T01:24:13;3.85;;;1.75;;
52618;SDS011;38513;53.234;6.568;2023-04-24T01:26:39;4.03;;;1.77;;
52618;SDS011;38513;53.234;6.568;2023-04-24T01:29:05;4.50;;;1.80;;
52618;SDS011;38513;53.234;6.568;2023-04-24T01:31:31;4.40;;;1.80;;
52618;SDS011;38513;53.234;6.568;2023-04-24T01:33:58;3.92;;;1.85;;
52618;SDS011;38513;53.234;6.568;2023-04-24T01:36:24;4.07;;;1.92;;
52618;SDS011;38513;53.234;6.568;2023-04-24T01:38:52;4.20;;;2.10;;
52618;SDS011;38513;53.234;6.568;2023-04-24T01:41:20;4.53;;;2.17;;
52618;SDS011;38513;53.234;6.568;2023-04-24T01:43:46;5.13;;;2.35;;
52618;SDS011;38513;53.234;6.568;2023-04-24T01:46:12;4.60;;;2.20;;
52618;SDS011;38513;53.234;6.568;2023-04-24T01:48:39;4.60;;;2.50;;
52618;SDS011;38513;53.234;6.568;2023-04-24T01:51:05;5.45;;;2.70;;
52618;SDS011;38513;53.234;6.568;2023-04-24T01:53:31;5.55;;;2.28;;
52618;SDS011;38513;53.234;6.568;2023-04-24T01:55:57;5.15;;;2.80;;
52618;SDS011;38513;53.234;6.568;2023-04-24T01:58:26;5.55;;;3.00;;
52618;SDS011;38513;53.234;6.568;2023-04-24T02:00:55;4.65;;;2.72;;
52618;SDS011;38513;53.234;6.568;2023-04-24T02:03:22;8.50;;;3.20;;
52618;SDS011;38513;53.234;6.568;2023-04-24T02:05:51;5.05;;;3.08;;
52618;SDS011;38513;53.234;6.568;2023-04-24T02:08:17;6.47;;;3.53;;
52618;SDS011;38513;53.234;6.568;2023-04-24T02:10:46;5.85;;;3.60;;
52618;SDS011;38513;53.234;6.568;2023-04-24T02:13:12;6.88;;;3.65;;
52618;SDS011;38513;53.234;6.568;2023-04-24T02:15:38;6.40;;;4.03;;
52618;SDS011;38513;53.234;6.568;2023-04-24T02:18:04;6.40;;;4.30;;
52618;SDS011;38513;53.234;6.568;2023-04-24T02:20:31;6.93;;;4.63;;
52618;SDS011;38513;53.234;6.568;2023-04-24T02:23:00;6.88;;;4.60;;
52618;SDS011;38513;53.234;6.568;2023-04-24T02:25:26;7.97;;;4.95;;
52618;SDS011;38513;53.234;6.568;2023-04-24T02:27:52;7.82;;;5.28;;
52618;SDS011;38513;53.234;6.568;2023-04-24T02:30:19;7.38;;;5.80;;
52618;SDS011;38513;53.234;6.568;2023-04-24T02:32:45;8.63;;;6.07;;
52618;SDS011;38513;53.234;6.568;2023-04-24T02:35:11;8.82;;;6.45;;
52618;SDS011;38513;53.234;6.568;2023-04-24T02:37:37;7.95;;;5.97;;
52618;SDS011;38513;53.234;6.568;2023-04-24T02:40:04;10.13;;;6.50;;
52618;SDS011;38513;53.234;6.568;2023-04-24T02:42:30;9.93;;;7.03;;
52618;SDS011;38513;53.234;6.568;2023-04-24T02:44:57;9.00;;;7.00;;
52618;SDS011;38513;53.234;6.568;2023-04-24T02:47:26;9.70;;;7.55;;
52618;SDS011;38513;53.234;6.568;2023-04-24T02:49:52;9.57;;;7.25;;
52618;SDS011;38513;53.234;6.568;2023-04-24T02:52:20;10.35;;;7.60;;
52618;SDS011;38513;53.234;6.568;2023-04-24T02:54:46;9.98;;;7.88;;
52618;SDS011;38513;53.234;6.568;2023-04-24T02:57:12;9.77;;;7.97;;
52618;SDS011;38513;53.234;6.568;2023-04-24T02:59:38;10.02;;;8.15;;
52618;SDS011;38513;53.234;6.568;2023-04-24T03:02:05;10.82;;;8.25;;
52618;SDS011;38513;53.234;6.568;2023-04-24T03:04:34;11.23;;;7.90;;
52618;SDS011;38513;53.234;6.568;2023-04-24T03:07:00;10.32;;;8.18;;
52618;SDS011;38513;53.234;6.568;2023-04-24T03:09:26;10.98;;;8.55;;
52618;SDS011;38513;53.234;6.568;2023-04-24T03:11:52;10.73;;;8.77;;
52618;SDS011;38513;53.234;6.568;2023-04-24T03:14:20;10.35;;;8.77;;
52618;SDS011;38513;53.234;6.568;2023-04-24T03:16:46;11.50;;;9.38;;
52618;SDS011;38513;53.234;6.568;2023-04-24T03:19:13;12.20;;;9.60;;
52618;SDS011;38513;53.234;6.568;2023-04-24T03:21:39;13.13;;;9.98;;
52618;SDS011;38513;53.234;6.568;2023-04-24T03:24:06;11.27;;;9.40;;
52618;SDS011;38513;53.234;6.568;2023-04-24T03:26:32;12.33;;;9.13;;
52618;SDS011;38513;53.234;6.568;2023-04-24T03:28:58;12.43;;;10.07;;
52618;SDS011;38513;53.234;6.568;2023-04-24T03:31:25;12.65;;;10.00;;
52618;SDS011;38513;53.234;6.568;2023-04-24T03:33:51;12.20;;;10.40;;
52618;SDS011;38513;53.234;6.568;2023-04-24T03:36:17;13.45;;;11.00;;
52618;SDS011;38513;53.234;6.568;2023-04-24T03:38:44;13.45;;;10.55;;
52618;SDS011;38513;53.234;6.568;2023-04-24T03:41:10;14.57;;;11.93;;
52618;SDS011;38513;53.234;6.568;2023-04-24T03:43:36;13.82;;;11.88;;
52618;SDS011;38513;53.234;6.568;2023-04-24T03:46:03;14.97;;;12.87;;
52618;SDS011;38513;53.234;6.568;2023-04-24T03:48:29;15.30;;;12.73;;
52618;SDS011;38513;53.234;6.568;2023-04-24T03:50:55;17.27;;;13.27;;
52618;SDS011;38513;53.234;6.568;2023-04-24T03:53:21;16.77;;;14.93;;
52618;SDS011;38513;53.234;6.568;2023-04-24T03:55:48;17.95;;;15.00;;
52618;SDS011;38513;53.234;6.568;2023-04-24T03:58:14;18.10;;;16.02;;
52618;SDS011;38513;53.234;6.568;2023-04-24T04:00:40;20.10;;;17.67;;
52618;SDS011;38513;53.234;6.568;2023-04-24T04:03:06;21.63;;;18.10;;
52618;SDS011;38513;53.234;6.568;2023-04-24T04:05:32;21.55;;;19.23;;
52618;SDS011;38513;53.234;6.568;2023-04-24T04:07:58;21.35;;;18.88;;
52618;SDS011;38513;53.234;6.568;2023-04-24T04:10:25;21.63;;;19.42;;
52618;SDS011;38513;53.234;6.568;2023-04-24T04:12:51;20.98;;;18.17;;
52618;SDS011;38513;53.234;6.568;2023-04-24T04:15:17;22.23;;;19.85;;
52618;SDS011;38513;53.234;6.568;2023-04-24T04:17:43;22.23;;;19.47;;
52618;SDS011;38513;53.234;6.568;2023-04-24T04:20:11;23.50;;;19.47;;
52618;SDS011;38513;53.234;6.568;2023-04-24T04:22:37;21.10;;;18.80;;
52618;SDS011;38513;53.234;6.568;2023-04-24T04:25:03;22.33;;;18.73;;
52618;SDS011;38513;53.234;6.568;2023-04-24T04:27:29;20.23;;;17.83;;
52618;SDS011;38513;53.234;6.568;2023-04-24T04:30:03;20.23;;;18.02;;
52618;SDS011;38513;53.234;6.568;2023-04-24T04:32:33;19.27;;;17.17;;
52618;SDS011;38513;53.234;6.568;2023-04-24T04:35:00;18.63;;;16.63;;
52618;SDS011;38513;53.234;6.568;2023-04-24T04:37:34;19.75;;;17.65;;
52618;SDS011;38513;53.234;6.568;2023-04-24T04:40:00;20.07;;;17.63;;
52618;SDS011;38513;53.234;6.568;2023-04-24T04:42:31;18.67;;;16.65;;
52618;SDS011;38513;53.234;6.568;2023-04-24T04:44:57;17.52;;;15.68;;
52618;SDS011;38513;53.234;6.568;2023-04-24T04:47:27;17.90;;;16.05;;
52618;SDS011;38513;53.234;6.568;2023-04-24T04:49:56;18.70;;;16.70;;
52618;SDS011;38513;53.234;6.568;2023-04-24T04:52:22;18.48;;;16.52;;
52618;SDS011;38513;53.234;6.568;2023-04-24T04:54:55;17.10;;;15.30;;
52618;SDS011;38513;53.234;6.568;2023-04-24T04:57:21;17.20;;;15.25;;
52618;SDS011;38513;53.234;6.568;2023-04-24T04:59:47;15.13;;;13.32;;
52618;SDS011;38513;53.234;6.568;2023-04-24T05:02:13;14.00;;;11.48;;
52618;SDS011;38513;53.234;6.568;2023-04-24T05:04:42;9.80;;;7.80;;
52618;SDS011;38513;53.234;6.568;2023-04-24T05:07:08;10.98;;;8.10;;
52618;SDS011;38513;53.234;6.568;2023-04-24T05:09:34;12.68;;;10.70;;
52618;SDS011;38513;53.234;6.568;2023-04-24T05:12:01;13.10;;;10.55;;
52618;SDS011;38513;53.234;6.568;2023-04-24T05:14:27;13.60;;;10.73;;
52618;SDS011;38513;53.234;6.568;2023-04-24T05:17:02;12.65;;;10.15;;
52618;SDS011;38513;53.234;6.568;2023-04-24T05:19:29;13.60;;;10.00;;
52618;SDS011;38513;53.234;6.568;2023-04-24T05:22:04;15.07;;;10.68;;
52618;SDS011;38513;53.234;6.568;2023-04-24T05:24:35;12.98;;;8.30;;
52618;SDS011;38513;53.234;6.568;2023-04-24T05:27:02;12.90;;;8.60;;
52618;SDS011;38513;53.234;6.568;2023-04-24T05:29:32;12.83;;;8.93;;
52618;SDS011;38513;53.234;6.568;2023-04-24T05:31:59;12.68;;;8.57;;
52618;SDS011;38513;53.234;6.568;2023-04-24T05:34:25;14.00;;;8.70;;
52618;SDS011;38513;53.234;6.568;2023-04-24T05:36:51;12.63;;;8.25;;
52618;SDS011;38513;53.234;6.568;2023-04-24T05:39:21;12.37;;;7.90;;
52618;SDS011;38513;53.234;6.568;2023-04-24T05:41:50;12.02;;;7.50;;
52618;SDS011;38513;53.234;6.568;2023-04-24T05:44:16;11.88;;;7.20;;
52618;SDS011;38513;53.234;6.568;2023-04-24T05:46:42;12.73;;;7.15;;
52618;SDS011;38513;53.234;6.568;2023-04-24T05:49:08;13.32;;;7.32;;
52618;SDS011;38513;53.234;6.568;2023-04-24T05:51:34;13.20;;;7.53;;
52618;SDS011;38513;53.234;6.568;2023-04-24T05:54:04;12.82;;;7.20;;
52618;SDS011;38513;53.234;6.568;2023-04-24T05:56:30;13.60;;;7.80;;
52618;SDS011;38513;53.234;6.568;2023-04-24T05:58:56;13.55;;;7.60;;
52618;SDS011;38513;53.234;6.568;2023-04-24T06:01:23;13.82;;;8.32;;
52618;SDS011;38513;53.234;6.568;2023-04-24T06:03:50;14.60;;;8.90;;
52618;SDS011;38513;53.234;6.568;2023-04-24T06:06:19;14.30;;;9.13;;
52618;SDS011;38513;53.234;6.568;2023-04-24T06:08:46;14.63;;;8.67;;
52618;SDS011;38513;53.234;6.568;2023-04-24T06:11:12;13.35;;;8.85;;
52618;SDS011;38513;53.234;6.568;2023-04-24T06:13:38;14.43;;;9.10;;
52618;SDS011;38513;53.234;6.568;2023-04-24T06:16:04;13.10;;;8.75;;
52618;SDS011;38513;53.234;6.568;2023-04-24T06:18:30;14.50;;;8.60;;
52618;SDS011;38513;53.234;6.568;2023-04-24T06:20:57;13.43;;;8.70;;
52618;SDS011;38513;53.234;6.568;2023-04-24T06:23:26;14.52;;;9.50;;
52618;SDS011;38513;53.234;6.568;2023-04-24T06:25:52;16.05;;;11.25;;
52618;SDS011;38513;53.234;6.568;2023-04-24T06:28:21;17.55;;;12.00;;
52618;SDS011;38513;53.234;6.568;2023-04-24T06:30:47;15.37;;;11.00;;
52618;SDS011;38513;53.234;6.568;2023-04-24T06:33:13;15.63;;;11.30;;
52618;SDS011;38513;53.234;6.568;2023-04-24T06:35:40;16.15;;;10.85;;
52618;SDS011;38513;53.234;6.568;2023-04-24T06:38:06;17.35;;;11.55;;
52618;SDS011;38513;53.234;6.568;2023-04-24T06:40:32;13.80;;;9.73;;
52618;SDS011;38513;53.234;6.568;2023-04-24T06:42:58;17.33;;;9.88;;
52618;SDS011;38513;53.234;6.568;2023-04-24T06:45:27;15.85;;;11.13;;
52618;SDS011;38513;53.234;6.568;2023-04-24T06:47:53;17.13;;;11.88;;
52618;SDS011;38513;53.234;6.568;2023-04-24T06:50:20;15.75;;;10.68;;
52618;SDS011;38513;53.234;6.568;2023-04-24T06:52:46;16.85;;;9.52;;
52618;SDS011;38513;53.234;6.568;2023-04-24T06:55:12;18.15;;;9.43;;
52618;SDS011;38513;53.234;6.568;2023-04-24T06:57:40;11.57;;;6.47;;
52618;SDS011;38513;53.234;6.568;2023-04-24T07:00:06;9.45;;;5.15;;
52618;SDS011;38513;53.234;6.568;2023-04-24T07:02:34;9.20;;;4.90;;
52618;SDS011;38513;53.234;6.568;2023-04-24T07:05:00;9.57;;;5.03;;
52618;SDS011;38513;53.234;6.568;2023-04-24T07:07:26;10.10;;;4.83;;
52618;SDS011;38513;53.234;6.568;2023-04-24T07:09:56;9.07;;;5.25;;
52618;SDS011;38513;53.234;6.568;2023-04-24T07:12:22;11.70;;;5.63;;
52618;SDS011;38513;53.234;6.568;2023-04-24T07:14:51;7.85;;;4.00;;
52618;SDS011;38513;53.234;6.568;2023-04-24T07:17:17;9.77;;;4.50;;
52618;SDS011;38513;53.234;6.568;2023-04-24T07:19:47;10.43;;;4.55;;
52618;SDS011;38513;53.234;6.568;2023-04-24T07:22:13;10.53;;;5.10;;
52618;SDS011;38513;53.234;6.568;2023-04-24T07:24:43;11.00;;;4.22;;
52618;SDS011;38513;53.234;6.568;2023-04-24T07:27:09;9.88;;;3.80;;
52618;SDS011;38513;53.234;6.568;2023-04-24T07:29:35;11.13;;;4.18;;
52618;SDS011;38513;53.234;6.568;2023-04-24T07:32:01;12.80;;;4.80;;
52618;SDS011;38513;53.234;6.568;2023-04-24T07:34:28;12.18;;;4.57;;
52618;SDS011;38513;53.234;6.568;2023-04-24T07:36:57;11.23;;;5.38;;
52618;SDS011;38513;53.234;6.568;2023-04-24T07:39:25;11.63;;;5.57;;
52618;SDS011;38513;53.234;6.568;2023-04-24T07:41:51;10.43;;;5.50;;
52618;SDS011;38513;53.234;6.568;2023-04-24T07:44:17;12.35;;;6.45;;
52618;SDS011;38513;53.234;6.568;2023-04-24T07:46:43;11.60;;;4.50;;
52618;SDS011;38513;53.234;6.568;2023-04-24T07:49:09;9.10;;;4.38;;
52618;SDS011;38513;53.234;6.568;2023-04-24T07:51:36;9.43;;;4.20;;
52618;SDS011;38513;53.234;6.568;2023-04-24T07:54:04;12.73;;;5.03;;
52618;SDS011;38513;53.234;6.568;2023-04-24T07:56:33;13.95;;;6.18;;
52618;SDS011;38513;53.234;6.568;2023-04-24T07:59:03;12.93;;;6.80;;
52618;SDS011;38513;53.234;6.568;2023-04-24T08:01:29;15.07;;;8.23;;
52618;SDS011;38513;53.234;6.568;2023-04-24T08:03:56;15.40;;;8.43;;
52618;SDS011;38513;53.234;6.568;2023-04-24T08:06:22;15.93;;;10.20;;
52618;SDS011;38513;53.234;6.568;2023-04-24T08:08:55;19.55;;;12.25;;
52618;SDS011;38513;53.234;6.568;2023-04-24T08:11:21;17.75;;;12.52;;
52618;SDS011;38513;53.234;6.568;2023-04-24T08:13:48;25.48;;;15.38;;
52618;SDS011;38513;53.234;6.568;2023-04-24T08:16:14;30.33;;;16.92;;
52618;SDS011;38513;53.234;6.568;2023-04-24T08:18:40;29.52;;;17.88;;
52618;SDS011;38513;53.234;6.568;2023-04-24T08:21:06;30.13;;;18.43;;
52618;SDS011;38513;53.234;6.568;2023-04-24T08:23:32;31.08;;;17.80;;
52618;SDS011;38513;53.234;6.568;2023-04-24T08:25:58;28.55;;;18.02;;
52618;SDS011;38513;53.234;6.568;2023-04-24T08:28:25;32.35;;;18.92;;
52618;SDS011;38513;53.234;6.568;2023-04-24T08:30:51;33.23;;;19.23;;
52618;SDS011;38513;53.234;6.568;2023-04-24T08:33:23;33.93;;;20.03;;
52618;SDS011;38513;53.234;6.568;2023-04-24T08:35:49;32.33;;;19.83;;
52618;SDS011;38513;53.234;6.568;2023-04-24T08:38:16;30.90;;;19.27;;
52618;SDS011;38513;53.234;6.568;2023-04-24T08:40:42;30.25;;;19.13;;
52618;SDS011;38513;53.234;6.568;2023-04-24T08:43:10;29.52;;;18.65;;
52618;SDS011;38513;53.234;6.568;2023-04-24T08:45:37;30.90;;;17.20;;
52618;SDS011;38513;53.234;6.568;2023-04-24T08:48:04;30.67;;;17.90;;
52618;SDS011;38513;53.234;6.568;2023-04-24T08:50:30;26.30;;;16.97;;
52618;SDS011;38513;53.234;6.568;2023-04-24T08:52:57;31.90;;;18.08;;
52618;SDS011;38513;53.234;6.568;2023-04-24T08:55:25;27.95;;;16.83;;
52618;SDS011;38513;53.234;6.568;2023-04-24T08:57:52;25.58;;;15.93;;
52618;SDS011;38513;53.234;6.568;2023-04-24T09:00:21;24.52;;;15.05;;
52618;SDS011;38513;53.234;6.568;2023-04-24T09:02:51;21.75;;;14.52;;
52618;SDS011;38513;53.234;6.568;2023-04-24T09:05:21;23.08;;;14.90;;
52618;SDS011;38513;53.234;6.568;2023-04-24T09:07:55;24.38;;;15.45;;
52618;SDS011;38513;53.234;6.568;2023-04-24T09:10:24;25.40;;;16.07;;
52618;SDS011;38513;53.234;6.568;2023-04-24T09:12:51;22.45;;;15.65;;
52618;SDS011;38513;53.234;6.568;2023-04-24T09:15:20;25.95;;;16.70;;
52618;SDS011;38513;53.234;6.568;2023-04-24T09:17:47;22.05;;;16.10;;
52618;SDS011;38513;53.234;6.568;2023-04-24T09:20:13;25.75;;;16.10;;
52618;SDS011;38513;53.234;6.568;2023-04-24T09:22:39;27.35;;;16.05;;
52618;SDS011;38513;53.234;6.568;2023-04-24T09:25:09;22.65;;;14.77;;
52618;SDS011;38513;53.234;6.568;2023-04-24T09:27:37;22.80;;;14.57;;
52618;SDS011;38513;53.234;6.568;2023-04-24T09:30:07;21.92;;;12.27;;
52618;SDS011;38513;53.234;6.568;2023-04-24T09:32:33;17.58;;;11.15;;
52618;SDS011;38513;53.234;6.568;2023-04-24T09:37:40;17.55;;;10.35;;
52618;SDS011;38513;53.234;6.568;2023-04-24T09:40:14;18.30;;;10.55;;
52618;SDS011;38513;53.234;6.568;2023-04-24T09:42:43;16.30;;;10.38;;
52618;SDS011;38513;53.234;6.568;2023-04-24T09:45:10;20.42;;;11.20;;
52618;SDS011;38513;53.234;6.568;2023-04-24T09:47:40;20.00;;;11.63;;
52618;SDS011;38513;53.234;6.568;2023-04-24T09:50:13;18.87;;;11.23;;
52618;SDS011;38513;53.234;6.568;2023-04-24T09:52:46;21.63;;;10.70;;
52618;SDS011;38513;53.234;6.568;2023-04-24T09:55:18;21.95;;;9.70;;
52618;SDS011;38513;53.234;6.568;2023-04-24T09:57:58;19.02;;;9.07;;
52618;SDS011;38513;53.234;6.568;2023-04-24T10:00:29;23.83;;;8.52;;
52618;SDS011;38513;53.234;6.568;2023-04-24T10:02:56;21.33;;;8.98;;
52618;SDS011;38513;53.234;6.568;2023-04-24T10:05:23;21.07;;;8.50;;
52618;SDS011;38513;53.234;6.568;2023-04-24T10:07:55;19.55;;;7.60;;
52618;SDS011;38513;53.234;6.568;2023-04-24T10:10:24;17.08;;;6.45;;
52618;SDS011;38513;53.234;6.568;2023-04-24T10:12:51;12.63;;;5.70;;
52618;SDS011;38513;53.234;6.568;2023-04-24T10:15:20;14.75;;;5.28;;
52618;SDS011;38513;53.234;6.568;2023-04-24T10:17:50;14.32;;;5.25;;
52618;SDS011;38513;53.234;6.568;2023-04-24T10:20:20;12.48;;;4.70;;
52618;SDS011;38513;53.234;6.568;2023-04-24T10:22:47;11.70;;;4.37;;
52618;SDS011;38513;53.234;6.568;2023-04-24T10:25:16;9.32;;;3.95;;
52618;SDS011;38513;53.234;6.568;2023-04-24T10:27:42;11.40;;;3.90;;
52618;SDS011;38513;53.234;6.568;2023-04-24T10:30:09;11.48;;;3.90;;
52618;SDS011;38513;53.234;6.568;2023-04-24T10:32:37;10.27;;;4.10;;
52618;SDS011;38513;53.234;6.568;2023-04-24T10:35:03;11.10;;;3.85;;
52618;SDS011;38513;53.234;6.568;2023-04-24T10:37:29;12.80;;;4.18;;
52618;SDS011;38513;53.234;6.568;2023-04-24T10:40:01;13.10;;;4.00;;
52618;SDS011;38513;53.234;6.568;2023-04-24T10:42:27;11.73;;;3.70;;
52618;SDS011;38513;53.234;6.568;2023-04-24T10:44:56;10.85;;;3.50;;
52618;SDS011;38513;53.234;6.568;2023-04-24T10:47:24;13.63;;;3.92;;
52618;SDS011;38513;53.234;6.568;2023-04-24T10:49:51;10.10;;;3.92;;
52618;SDS011;38513;53.234;6.568;2023-04-24T10:52:17;9.63;;;3.40;;
52618;SDS011;38513;53.234;6.568;2023-04-24T10:54:47;9.23;;;3.50;;
52618;SDS011;38513;53.234;6.568;2023-04-24T11:02:37;11.43;;;3.40;;
52618;SDS011;38513;53.234;6.568;2023-04-24T11:05:03;11.27;;;3.90;;
52618;SDS011;38513;53.234;6.568;2023-04-24T11:07:38;8.98;;;3.22;;
52618;SDS011;38513;53.234;6.568;2023-04-24T11:10:28;11.05;;;3.17;;
52618;SDS011;38513;53.234;6.568;2023-04-24T11:12:57;13.23;;;4.25;;
52618;SDS011;38513;53.234;6.568;2023-04-24T11:15:23;10.32;;;2.90;;
52618;SDS011;38513;53.234;6.568;2023-04-24T11:17:50;11.63;;;3.00;;
52618;SDS011;38513;53.234;6.568;2023-04-24T11:20:22;10.75;;;2.83;;
52618;SDS011;38513;53.234;6.568;2023-04-24T11:22:52;12.90;;;3.35;;
52618;SDS011;38513;53.234;6.568;2023-04-24T11:25:20;10.48;;;3.05;;
52618;SDS011;38513;53.234;6.568;2023-04-24T11:27:47;11.18;;;2.90;;
52618;SDS011;38513;53.234;6.568;2023-04-24T11:30:19;11.02;;;2.90;;
52618;SDS011;38513;53.234;6.568;2023-04-24T11:32:49;8.55;;;2.50;;
52618;SDS011;38513;53.234;6.568;2023-04-24T11:35:17;11.25;;;2.85;;
52618;SDS011;38513;53.234;6.568;2023-04-24T11:37:47;12.53;;;3.00;;
52618;SDS011;38513;53.234;6.568;2023-04-24T11:40:17;11.00;;;2.50;;
52618;SDS011;38513;53.234;6.568;2023-04-24T11:42:48;10.98;;;2.63;;
52618;SDS011;38513;53.234;6.568;2023-04-24T11:45:21;11.63;;;2.67;;
52618;SDS011;38513;53.234;6.568;2023-04-24T11:47:52;9.00;;;2.50;;
52618;SDS011;38513;53.234;6.568;2023-04-24T11:50:22;9.15;;;2.45;;
52618;SDS011;38513;53.234;6.568;2023-04-24T11:52:55;8.82;;;2.20;;
52618;SDS011;38513;53.234;6.568;2023-04-24T11:55:23;11.43;;;2.45;;
52618;SDS011;38513;53.234;6.568;2023-04-24T11:57:54;10.07;;;2.40;;
52618;SDS011;38513;53.234;6.568;2023-04-24T12:03:06;10.70;;;2.55;;
52618;SDS011;38513;53.234;6.568;2023-04-24T12:05:33;12.27;;;4.75;;
52618;SDS011;38513;53.234;6.568;2023-04-24T12:08:00;9.45;;;2.28;;
52618;SDS011;38513;53.234;6.568;2023-04-24T12:10:28;10.60;;;2.40;;
52618;SDS011;38513;53.234;6.568;2023-04-24T12:13:02;18.38;;;2.70;;
52618;SDS011;38513;53.234;6.568;2023-04-24T12:15:29;10.95;;;2.70;;
52618;SDS011;38513;53.234;6.568;2023-04-24T12:17:55;10.63;;;2.90;;
52618;SDS011;38513;53.234;6.568;2023-04-24T12:20:26;11.90;;;2.85;;
52618;SDS011;38513;53.234;6.568;2023-04-24T12:22:54;8.45;;;2.20;;
52618;SDS011;38513;53.234;6.568;2023-04-24T12:25:25;9.30;;;2.22;;
52618;SDS011;38513;53.234;6.568;2023-04-24T12:27:52;7.95;;;2.20;;
52618;SDS011;38513;53.234;6.568;2023-04-24T12:30:20;9.05;;;2.05;;
52618;SDS011;38513;53.234;6.568;2023-04-24T12:32:48;6.35;;;1.67;;
52618;SDS011;38513;53.234;6.568;2023-04-24T12:35:19;7.75;;;1.55;;
52618;SDS011;38513;53.234;6.568;2023-04-24T12:37:46;7.68;;;1.60;;
52618;SDS011;38513;53.234;6.568;2023-04-24T12:40:12;6.65;;;1.45;;
52618;SDS011;38513;53.234;6.568;2023-04-24T12:45:34;5.72;;;1.48;;
52618;SDS011;38513;53.234;6.568;2023-04-24T12:48:00;6.28;;;1.40;;
52618;SDS011;38513;53.234;6.568;2023-04-24T12:50:26;6.80;;;1.60;;
52618;SDS011;38513;53.234;6.568;2023-04-24T12:52:52;9.23;;;1.50;;
52618;SDS011;38513;53.234;6.568;2023-04-24T12:55:21;7.88;;;1.50;;
52618;SDS011;38513;53.234;6.568;2023-04-24T12:57:47;6.37;;;1.27;;
52618;SDS011;38513;53.234;6.568;2023-04-24T13:00:13;5.97;;;1.40;;
52618;SDS011;38513;53.234;6.568;2023-04-24T13:02:40;8.68;;;1.50;;
52618;SDS011;38513;53.234;6.568;2023-04-24T13:05:06;8.93;;;1.40;;
52618;SDS011;38513;53.234;6.568;2023-04-24T13:07:32;8.10;;;1.40;;
52618;SDS011;38513;53.234;6.568;2023-04-24T13:09:59;9.15;;;1.67;;
52618;SDS011;38513;53.234;6.568;2023-04-24T13:12:27;8.63;;;1.80;;
52618;SDS011;38513;53.234;6.568;2023-04-24T13:14:57;8.80;;;1.60;;
52618;SDS011;38513;53.234;6.568;2023-04-24T13:17:26;9.27;;;1.70;;
52618;SDS011;38513;53.234;6.568;2023-04-24T13:19:56;9.95;;;1.90;;
52618;SDS011;38513;53.234;6.568;2023-04-24T13:22:22;7.50;;;1.52;;
52618;SDS011;38513;53.234;6.568;2023-04-24T13:24:52;5.90;;;1.30;;
52618;SDS011;38513;53.234;6.568;2023-04-24T13:27:22;9.10;;;1.70;;
52618;SDS011;38513;53.234;6.568;2023-04-24T13:29:56;12.18;;;5.40;;
52618;SDS011;38513;53.234;6.568;2023-04-24T13:32:24;7.97;;;1.58;;
52618;SDS011;38513;53.234;6.568;2023-04-24T13:34:50;6.22;;;1.20;;
52618;SDS011;38513;53.234;6.568;2023-04-24T13:37:16;8.13;;;1.20;;
52618;SDS011;38513;53.234;6.568;2023-04-24T13:39:43;6.60;;;1.25;;
52618;SDS011;38513;53.234;6.568;2023-04-24T13:42:09;6.00;;;1.00;;
52618;SDS011;38513;53.234;6.568;2023-04-24T13:44:35;6.05;;;0.98;;
52618;SDS011;38513;53.234;6.568;2023-04-24T13:47:02;5.72;;;1.00;;
52618;SDS011;38513;53.234;6.568;2023-04-24T13:49:28;6.68;;;1.17;;
52618;SDS011;38513;53.234;6.568;2023-04-24T13:51:55;6.03;;;1.15;;
52618;SDS011;38513;53.234;6.568;2023-04-24T13:54:21;5.95;;;1.02;;
52618;SDS011;38513;53.234;6.568;2023-04-24T13:56:50;5.55;;;0.98;;
52618;SDS011;38513;53.234;6.568;2023-04-24T13:59:16;6.07;;;1.20;;
52618;SDS011;38513;53.234;6.568;2023-04-24T14:01:43;8.70;;;1.60;;
52618;SDS011;38513;53.234;6.568;2023-04-24T14:04:10;8.38;;;1.55;;
52618;SDS011;38513;53.234;6.568;2023-04-24T14:06:36;10.63;;;2.25;;
52618;SDS011;38513;53.234;6.568;2023-04-24T14:09:02;9.52;;;2.03;;
52618;SDS011;38513;53.234;6.568;2023-04-24T14:11:29;9.35;;;2.67;;
52618;SDS011;38513;53.234;6.568;2023-04-24T14:13:55;10.50;;;2.63;;
52618;SDS011;38513;53.234;6.568;2023-04-24T14:16:21;10.95;;;2.50;;
52618;SDS011;38513;53.234;6.568;2023-04-24T14:18:47;14.68;;;3.53;;
52618;SDS011;38513;53.234;6.568;2023-04-24T14:21:14;12.02;;;3.05;;
52618;SDS011;38513;53.234;6.568;2023-04-24T14:23:40;13.35;;;3.05;;
52618;SDS011;38513;53.234;6.568;2023-04-24T14:26:06;11.27;;;2.65;;
52618;SDS011;38513;53.234;6.568;2023-04-24T14:28:33;12.27;;;3.30;;
52618;SDS011;38513;53.234;6.568;2023-04-24T14:30:59;10.75;;;2.83;;
52618;SDS011;38513;53.234;6.568;2023-04-24T14:33:25;13.40;;;2.95;;
52618;SDS011;38513;53.234;6.568;2023-04-24T14:35:51;9.60;;;2.90;;
52618;SDS011;38513;53.234;6.568;2023-04-24T14:38:18;11.37;;;3.17;;
52618;SDS011;38513;53.234;6.568;2023-04-24T14:40:44;11.90;;;3.20;;
52618;SDS011;38513;53.234;6.568;2023-04-24T14:43:10;12.15;;;3.17;;
52618;SDS011;38513;53.234;6.568;2023-04-24T14:45:36;12.68;;;3.05;;
52618;SDS011;38513;53.234;6.568;2023-04-24T14:48:03;12.38;;;2.85;;
52618;SDS011;38513;53.234;6.568;2023-04-24T14:50:29;11.30;;;2.80;;